Time;durP1;ratioP1;P1;durP2;ratioP2;P2;SDS_P1;SDS_P2;PMS_P1;PMS_P2;Temp;Humidity;BMP_temperature;BMP_pressure;BME280_temperature;BME280_humidity;BME280_pressure;Samples;Min_cycle;Max_cycle;Signal;HPM_P1;HPM_P2
2021/03/27 00:02:35;;;;;;;7.97;4.85;;;;;;;12.55;47.53;99142.53;5072639;28;20408;-88
2021/03/27 00:05:15;;;;;;;9.23;4.65;;;;;;;12.53;47.59;99149.75;5072260;28;20052;-88
2021/03/27 00:08:02;;;;;;;8.10;4.90;;;;;;;12.46;47.76;99149.38;5072987;28;20044;-89
2021/03/27 00:10:44;;;;;;;8.05;5.43;;;;;;;12.40;48.04;99134.84;5073617;28;20102;-88
2021/03/27 00:13:28;;;;;;;9.70;4.80;;;;;;;12.41;48.17;99133.88;5072668;28;20052;-88
2021/03/27 00:16:02;;;;;;;9.52;5.20;;;;;;;12.34;48.33;99137.94;5073614;28;20052;-88
2021/03/27 00:18:58;;;;;;;9.00;5.60;;;;;;;12.28;48.50;99136.59;5072313;28;20512;-88
2021/03/27 00:21:31;;;;;;;9.43;5.45;;;;;;;12.29;48.80;99135.63;5073586;28;20053;-89
2021/03/27 00:24:05;;;;;;;9.63;5.22;;;;;;;12.31;48.74;99135.53;5072356;28;20051;-88
2021/03/27 00:26:41;;;;;;;;;;;;;;;12.30;48.56;99128.56;5072967;28;20049;-89
2021/03/27 00:29:16;;;;;;;8.90;5.18;;;;;;;12.34;48.79;99141.41;5072618;28;20335;-88
2021/03/27 00:31:48;;;;;;;8.82;5.43;;;;;;;12.32;48.96;99134.56;5072548;28;20056;-89
2021/03/27 00:34:20;;;;;;;8.65;5.38;;;;;;;12.33;49.02;99131.81;5072573;28;20048;-88
2021/03/27 00:36:54;;;;;;;9.68;5.90;;;;;;;12.31;48.81;99133.75;5073648;28;20092;-89
2021/03/27 00:39:32;;;;;;;10.88;5.72;;;;;;;12.32;49.03;99131.91;5073861;28;20052;-88
2021/03/27 00:42:07;;;;;;;7.78;5.68;;;;;;;12.34;49.21;99138.75;5073752;28;20048;-88
2021/03/27 00:44:40;;;;;;;8.13;5.70;;;;;;;12.35;49.03;99137.84;5072841;28;20440;-89
2021/03/27 00:47:08;;;;;;;12.90;6.70;;;;;;;12.37;49.28;99143.81;5073656;28;20053;-88
2021/03/27 00:49:47;;;;;;;10.23;5.72;;;;;;;12.37;49.11;99135.91;5072522;28;20459;-89
2021/03/27 00:52:17;;;;;;;9.18;5.60;;;;;;;12.41;49.40;99151.53;5072477;28;20068;-89
2021/03/27 00:54:49;;;;;;;8.93;5.55;;;;;;;12.40;49.54;99153.31;5072238;28;20056;-89
2021/03/27 00:57:15;;;;;;;9.55;5.35;;;;;;;12.41;49.90;99175.28;5072706;28;20417;-89
2021/03/27 01:00:05;;;;;;;8.00;5.82;;;;;;;12.34;52.61;99196.00;5072165;28;20067;-89
2021/03/27 01:02:35;;;;;;;7.32;5.30;;;;;;;12.33;51.77;99210.97;5072180;28;20451;-89
2021/03/27 01:05:07;;;;;;;11.27;5.22;;;;;;;12.25;52.46;99213.34;5073008;28;20485;-89
2021/03/27 01:07:35;;;;;;;8.10;4.88;;;;;;;12.19;52.11;99227.00;5072213;28;20048;-89
2021/03/27 01:10:07;;;;;;;7.63;3.92;;;;;;;12.06;52.42;99241.06;5073225;28;20056;-90
2021/03/27 01:12:39;;;;;;;5.65;3.33;;;;;;;11.91;54.00;99236.84;5073234;28;20055;-89
2021/03/27 01:15:21;;;;;;;5.20;2.90;;;;;;;11.73;54.67;99243.31;5072910;28;20048;-89
2021/03/27 01:17:55;;;;;;;2.50;2.30;;;;;;;11.60;53.82;99240.69;5073791;28;20370;-89
2021/03/27 01:20:26;;;;;;;4.18;2.65;;;;;;;11.47;54.32;99245.13;5072995;28;20072;-89
2021/03/27 01:22:54;;;;;;;3.25;2.60;;;;;;;11.32;54.07;99231.22;5073552;28;20052;-88
2021/03/27 01:25:34;;;;;;;4.10;2.40;;;;;;;11.16;55.46;99234.91;5073718;28;20053;-88
2021/03/27 01:28:12;;;;;;;2.78;1.88;;;;;;;11.08;55.01;99231.94;5075465;28;20426;-89
2021/03/27 01:30:53;;;;;;;3.63;1.67;;;;;;;10.95;55.91;99229.28;5076809;28;20052;-88
2021/03/27 01:33:30;;;;;;;3.53;1.50;;;;;;;10.82;56.12;99243.28;5076706;28;20048;-89
2021/03/27 01:36:15;;;;;;;2.42;1.58;;;;;;;10.69;56.15;99239.75;5075489;28;20059;-88
2021/03/27 01:39:08;;;;;;;3.25;1.45;;;;;;;10.57;56.85;99262.47;5075927;28;20049;-88
2021/03/27 01:41:59;;;;;;;1.60;1.50;;;;;;;10.47;56.74;99258.75;5075292;28;20055;-88
2021/03/27 01:44:40;;;;;;;2.40;1.27;;;;;;;10.38;57.09;99274.16;5076590;28;20053;-88
2021/03/27 01:47:15;;;;;;;1.70;1.35;;;;;;;10.35;55.98;99289.31;5076642;28;20056;-88
2021/03/27 01:49:52;;;;;;;2.78;1.27;;;;;;;10.24;56.45;99288.19;5075323;28;20058;-89
2021/03/27 01:52:38;;;;;;;2.47;1.10;;;;;;;10.15;57.15;99299.28;5074935;28;20493;-89
2021/03/27 01:55:36;;;;;;;1.25;0.90;;;;;;;10.03;57.85;99293.84;5076338;28;20153;-89
2021/03/27 01:58:16;;;;;;;3.35;1.00;;;;;;;9.92;58.54;99304.19;5076896;28;20049;-89
2021/03/27 02:00:50;;;;;;;1.05;0.77;;;;;;;9.88;57.58;99315.84;5075280;28;20057;-88
2021/03/27 02:03:23;;;;;;;0.50;0.50;;;;;;;9.80;57.58;99315.47;5076342;28;20102;-88
2021/03/27 02:06:11;;;;;;;1.02;0.65;;;;;;;9.70;58.20;99323.06;5076484;28;20044;-88
2021/03/27 02:08:45;;;;;;;0.68;0.63;;;;;;;9.62;58.08;99324.38;5075158;28;20052;-89
2021/03/27 02:11:14;;;;;;;2.05;0.85;;;;;;;9.58;57.86;99320.25;5075989;28;20050;-88
2021/03/27 02:14:04;;;;;;;1.67;1.00;;;;;;;9.50;58.04;99331.19;5075688;28;20048;-87
2021/03/27 02:16:49;;;;;;;0.90;0.90;;;;;;;9.43;58.66;99331.66;5075388;28;20055;-88
2021/03/27 02:19:33;;;;;;;4.00;2.13;;;;;;;9.37;59.61;99330.22;5074828;28;20102;-89
2021/03/27 02:22:21;;;;;;;3.70;1.90;;;;;;;9.35;58.70;99332.13;5074639;28;20051;-88
2021/03/27 02:25:05;;;;;;;1.70;1.60;;;;;;;9.25;60.06;99343.16;5075988;28;20127;-88
2021/03/27 02:27:39;;;;;;;2.20;2.00;;;;;;;9.20;59.48;99347.81;5074788;28;20044;-88
2021/03/27 02:30:22;;;;;;;2.10;1.90;;;;;;;9.14;59.63;99353.44;5074558;28;20052;-89
2021/03/27 02:32:58;;;;;;;3.03;2.50;;;;;;;9.10;59.57;99351.91;5074112;28;20056;-89
2021/03/27 02:35:28;;;;;;;2.90;2.55;;;;;;;9.07;59.25;99352.94;5074131;28;20049;-89
2021/03/27 02:38:20;;;;;;;4.80;2.70;;;;;;;9.03;59.59;99350.56;5075088;28;20516;-89
2021/03/27 02:41:13;;;;;;;3.85;2.90;;;;;;;8.99;60.14;99358.66;5073460;28;20049;-88
2021/03/27 02:43:45;;;;;;;3.42;3.00;;;;;;;8.99;59.77;99363.03;5073811;28;20044;-88
2021/03/27 02:46:16;;;;;;;4.25;3.33;;;;;;;8.99;58.69;99363.91;5075014;28;20053;-88
2021/03/27 02:48:55;;;;;;;5.53;3.83;;;;;;;8.96;60.68;99357.94;5075216;28;20049;-88
2021/03/27 02:51:57;;;;;;;4.40;3.40;;;;;;;8.94;60.58;99371.16;5073619;28;20052;-88
2021/03/27 02:54:29;;;;;;;3.80;3.42;;;;;;;8.95;59.50;99377.28;5050960;28;20059;-88
2021/03/27 02:57:08;;;;;;;4.80;3.63;;;;;;;8.91;60.61;99376.59;5073822;28;20053;-89
2021/03/27 02:59:48;;;;;;;4.93;3.78;;;;;;;8.91;61.01;99381.84;5074896;28;20055;-89
2021/03/27 03:02:41;;;;;;;4.55;4.00;;;;;;;8.87;62.42;99390.84;5074265;28;20232;-88
2021/03/27 03:05:17;;;;;;;4.38;3.95;;;;;;;8.85;61.26;99390.06;5073359;28;20168;-88
2021/03/27 03:08:23;;;;;;;4.70;4.20;;;;;;;8.78;61.77;99399.22;5073615;28;20106;-89
2021/03/27 03:10:58;;;;;;;4.70;3.83;;;;;;;8.76;61.04;99407.19;5067644;28;20048;-89
2021/03/27 03:13:43;;;;;;;5.90;4.35;;;;;;;8.66;62.61;99417.31;5074576;28;20057;-89
2021/03/27 03:16:29;;;;;;;5.40;4.80;;;;;;;8.60;64.04;99423.75;5073460;28;20084;-88
2021/03/27 03:19:06;;;;;;;4.82;4.28;;;;;;;8.59;62.43;99429.06;5074390;28;20051;-89
2021/03/27 03:21:40;;;;;;;5.97;5.15;;;;;;;8.52;62.48;99423.28;5074131;28;20045;-89
2021/03/27 03:24:22;;;;;;;5.85;4.72;;;;;;;8.45;63.03;99425.38;5073085;28;20075;-88
2021/03/27 03:27:08;;;;;;;7.63;5.30;;;;;;;8.39;63.26;99415.25;5073383;28;20052;-89
2021/03/27 03:29:37;;;;;;;11.27;5.90;;;;;;;8.37;61.50;99427.56;5074565;28;20053;-89
2021/03/27 03:32:25;;;;;;;7.97;5.25;;;;;;;8.26;64.74;99427.31;5074113;28;20052;-89
2021/03/27 03:35:17;;;;;;;6.82;5.00;;;;;;;8.19;63.75;99440.72;5073795;28;20094;-88
2021/03/27 03:37:43;;;;;;;6.82;5.18;;;;;;;8.16;62.02;99429.56;5073334;28;20053;-89
2021/03/27 03:40:24;;;;;;;10.30;5.60;;;;;;;8.05;63.80;99430.13;5073413;28;20052;-88
2021/03/27 03:43:02;;;;;;;7.93;5.95;;;;;;;8.00;64.76;99437.38;5110936;22;20443;-87
2021/03/27 03:45:47;;;;;;;7.10;5.00;;;;;;;7.99;63.07;99443.56;5055693;28;20049;-87
2021/03/27 03:48:20;;;;;;;9.68;6.18;;;;;;;7.91;65.05;99438.69;5056083;28;20053;-88
2021/03/27 03:50:57;;;;;;;6.50;5.43;;;;;;;7.87;66.29;99437.16;5055659;28;20504;-88
2021/03/27 03:53:29;;;;;;;7.93;5.07;;;;;;;7.86;65.25;99440.69;5073780;28;20048;-88
2021/03/27 03:55:58;;;;;;;8.77;5.90;;;;;;;7.87;63.40;99437.16;5055536;28;20523;-88
2021/03/27 03:58:52;;;;;;;10.63;6.30;;;;;;;7.81;66.13;99451.41;5056021;28;20481;-88
2021/03/27 04:01:26;;;;;;;11.02;6.50;;;;;;;7.80;66.11;99444.47;5055774;28;20083;-88
2021/03/27 04:04:08;;;;;;;6.50;5.65;;;;;;;7.79;65.48;99448.88;5073441;28;20059;-87
2021/03/27 04:06:39;;;;;;;7.50;5.90;;;;;;;7.76;65.67;99450.78;5073634;28;20049;-88
2021/03/27 04:09:32;;;;;;;10.05;6.20;;;;;;;7.71;67.29;99458.91;5073600;28;20049;-88
2021/03/27 04:12:18;;;;;;;9.97;5.47;;;;;;;7.69;67.34;99456.34;5073377;28;20052;-88
2021/03/27 04:15:12;;;;;;;9.65;6.70;;;;;;;7.68;67.06;99453.81;5073175;28;20291;-88
2021/03/27 04:17:44;;;;;;;12.77;6.78;;;;;;;7.71;65.07;99450.19;5055696;28;20052;-88
2021/03/27 04:20:43;;;;;;;10.23;6.32;;;;;;;7.68;67.62;99469.53;5073328;28;20523;-88
2021/03/27 04:23:31;;;;;;;11.20;5.65;;;;;;;7.63;67.74;99500.34;5073496;28;20083;-88
2021/03/27 04:26:08;;;;;;;10.75;5.38;;;;;;;7.66;66.12;99490.56;5055617;28;20056;-89
2021/03/27 04:28:39;;;;;;;7.22;4.75;;;;;;;7.65;66.13;99495.84;5073243;28;20485;-88
2021/03/27 04:31:24;;;;;;;6.68;3.90;;;;;;;7.65;65.30;99499.34;5055900;28;20045;-88
2021/03/27 04:33:53;;;;;;;5.65;3.58;;;;;;;7.65;65.86;99490.63;5055262;28;20088;-88
2021/03/27 04:36:29;;;;;;;6.82;3.47;;;;;;;7.64;66.30;99497.66;5073130;28;20508;-89
2021/03/27 04:39:20;;;;;;;5.00;2.60;;;;;;;7.64;65.10;99497.66;5073075;28;20047;-88
2021/03/27 04:41:58;;;;;;;3.30;2.20;;;;;;;7.62;64.92;99498.66;5073052;28;20517;-88
2021/03/27 04:44:36;;;;;;;5.43;1.60;;;;;;;7.60;63.74;99519.69;5073065;28;20052;-88
2021/03/27 04:47:14;;;;;;;6.95;1.52;;;;;;;7.56;63.42;99503.25;5055546;28;20045;-89
2021/03/27 04:50:10;;;;;;;2.58;1.75;;;;;;;7.47;63.13;99505.47;5072986;28;20516;-88
2021/03/27 04:53:03;;;;;;;3.97;1.67;;;;;;;7.43;63.39;99508.25;5055441;28;20056;-89
2021/03/27 04:56:04;;;;;;;5.78;2.00;;;;;;;7.34;63.07;99513.94;5055432;28;20063;-88
2021/03/27 04:59:14;;;;;;;4.93;1.98;;;;;;;7.28;63.15;99525.53;5055366;28;20473;-88
2021/03/27 05:01:50;;;;;;;2.72;2.00;;;;;;;7.24;63.05;99528.34;5055127;28;20048;-88
2021/03/27 05:04:41;;;;;;;6.22;2.60;;;;;;;7.13;63.36;99529.72;5058894;28;20562;-89
2021/03/27 05:07:15;;;;;;;9.77;2.72;;;;;;;7.10;62.87;99536.88;5058910;28;20048;-88
2021/03/27 05:09:49;;;;;;;6.28;2.90;;;;;;;7.04;63.29;99540.59;5059043;28;20044;-88
2021/03/27 05:12:26;;;;;;;6.10;3.08;;;;;;;6.96;63.36;99535.75;5058997;28;20067;-88
2021/03/27 05:15:11;;;;;;;6.65;3.25;;;;;;;6.89;64.22;99550.84;5076319;28;20105;-88
2021/03/27 05:17:43;;;;;;;6.18;3.40;;;;;;;6.86;63.73;99558.84;5058909;28;20060;-88
2021/03/27 05:20:22;;;;;;;6.97;3.33;;;;;;;6.80;64.29;99556.50;5076625;28;20134;-88
2021/03/27 05:23:22;;;;;;;10.85;3.45;;;;;;;6.73;64.29;99553.28;5058610;28;20457;-88
2021/03/27 05:26:01;;;;;;;10.30;4.22;;;;;;;6.71;64.58;99556.91;5076458;28;20415;-88
2021/03/27 05:28:36;;;;;;;6.70;4.13;;;;;;;6.70;64.34;99555.22;5058631;28;20052;-88
2021/03/27 05:31:55;;;;;;;11.70;4.82;;;;;;;6.63;65.11;99571.19;5076416;28;20441;-88
2021/03/27 05:34:42;;;;;;;9.88;4.60;;;;;;;6.63;65.29;99568.56;5041958;28;20052;-88
2021/03/27 05:37:17;;;;;;;9.02;4.40;;;;;;;6.68;64.39;99572.72;5058634;28;20060;-88
2021/03/27 05:39:52;;;;;;;8.57;4.70;;;;;;;6.63;65.30;99568.56;5076156;28;20052;-86
2021/03/27 05:42:46;;;;;;;14.38;5.43;;;;;;;6.62;65.42;99579.91;5075952;28;20048;-86
2021/03/27 05:45:15;;;;;;;10.25;5.35;;;;;;;6.65;65.10;99573.72;5058135;28;20048;-86
2021/03/27 05:48:33;;;;;;;10.70;5.53;;;;;;;6.62;65.63;99579.09;5058284;28;20049;-86
2021/03/27 05:51:14;;;;;;;12.35;5.78;;;;;;;6.65;65.75;99573.72;5042564;28;20492;-86
2021/03/27 05:54:05;;;;;;;14.13;5.72;;;;;;;6.67;65.65;99582.34;5075716;28;20056;-87
2021/03/27 05:56:37;;;;;;;13.85;5.38;;;;;;;6.70;66.09;99587.47;5057885;28;20047;-86
2021/03/27 05:59:54;;;;;;;9.85;6.00;;;;;;;6.74;66.08;99575.09;5058062;28;20052;-86
2021/03/27 06:02:35;;;;;;;10.82;5.68;;;;;;;6.85;65.90;99579.84;5049839;28;20048;-86
2021/03/27 06:05:23;;;;;;;12.82;6.15;;;;;;;6.89;66.40;99579.63;5075413;28;20492;-86
2021/03/27 06:07:52;;;;;;;12.55;6.22;;;;;;;6.98;66.41;99578.38;5076077;28;20045;-86
2021/03/27 06:10:40;;;;;;;15.05;6.22;;;;;;;7.01;66.97;99575.63;5075676;28;20048;-86
2021/03/27 06:13:27;;;;;;;10.43;6.15;;;;;;;7.10;66.33;99571.72;5076005;28;20048;-86
2021/03/27 06:16:15;;;;;;;16.25;6.32;;;;;;;7.14;66.44;99586.38;5057296;28;20508;-86
2021/03/27 06:19:14;;;;;;;12.60;7.00;;;;;;;7.21;65.86;99584.31;5075250;28;20049;-87
2021/03/27 06:22:15;;;;;;;14.38;6.25;;;;;;;7.27;66.13;99580.59;5060229;28;20056;-86
2021/03/27 06:25:14;;;;;;;10.53;5.07;;;;;;;7.34;66.18;99592.47;5057422;28;20049;-86
2021/03/27 06:27:45;;;;;;;13.52;6.72;;;;;;;7.40;65.60;99583.50;5058008;28;20140;-86
2021/03/27 06:30:20;;;;;;;16.98;7.22;;;;;;;7.45;65.59;99589.34;5075292;28;20429;-86
2021/03/27 06:32:52;;;;;;;16.80;7.53;;;;;;;7.48;65.57;99598.84;5057720;28;20493;-86
2021/03/27 06:35:45;;;;;;;20.50;7.80;;;;;;;7.51;66.02;99593.47;5057337;28;20057;-86
2021/03/27 06:38:26;;;;;;;16.08;7.50;;;;;;;7.54;66.18;99599.41;5026948;28;20049;-85
2021/03/27 06:41:34;;;;;;;15.77;6.63;;;;;;;7.59;66.39;99596.53;5075191;28;20056;-86
2021/03/27 06:44:17;;;;;;;12.48;6.30;;;;;;;7.63;66.05;99584.16;5004527;28;20046;-86
2021/03/27 06:47:02;;;;;;;14.68;5.65;;;;;;;7.65;65.70;99588.41;5074974;28;20059;-86
2021/03/27 06:49:50;;;;;;;11.85;6.13;;;;;;;7.69;65.86;99583.88;5057204;28;20416;-86
2021/03/27 06:52:50;;;;;;;12.85;6.22;;;;;;;7.73;65.75;99595.91;5058557;28;20056;-86
2021/03/27 06:55:38;;;;;;;12.10;5.60;;;;;;;7.77;65.93;99593.97;5074664;28;20048;-86
2021/03/27 06:58:31;;;;;;;16.92;6.43;;;;;;;7.81;65.57;99595.53;5057457;28;20056;-86
2021/03/27 07:01:00;;;;;;;;;;;;;;;7.86;65.05;99596.19;5075074;28;20049;-86
2021/03/27 07:03:41;;;;;;;14.70;5.55;;;;;;;7.93;65.30;99601.97;5074283;28;19930;-86
2021/03/27 07:06:34;;;;;;;10.00;5.38;;;;;;;7.89;65.13;99601.25;5056946;28;20048;-86
2021/03/27 07:09:25;;;;;;;10.65;5.32;;;;;;;7.90;65.38;99610.81;5074690;28;20056;-86
2021/03/27 07:12:19;;;;;;;10.80;4.65;;;;;;;7.92;65.55;99614.22;5056687;28;20128;-86
2021/03/27 07:15:13;;;;;;;9.60;4.47;;;;;;;7.94;65.43;99615.00;5056381;28;20048;-86
2021/03/27 07:18:21;;;;;;;11.18;4.72;;;;;;;7.93;65.99;99623.75;5074278;28;20051;-86
2021/03/27 07:21:26;;;;;;;12.60;4.97;;;;;;;7.95;65.81;99637.66;5056332;28;20135;-86
2021/03/27 07:24:12;;;;;;;13.18;4.45;;;;;;;7.92;65.67;99635.19;5056260;28;20130;-87
2021/03/27 07:26:47;;;;;;;11.50;4.78;;;;;;;7.90;66.27;99634.41;5055939;28;20057;-87
2021/03/27 07:29:42;;;;;;;15.63;4.68;;;;;;;7.78;66.20;99643.69;5056328;28;20044;-86
2021/03/27 07:32:20;;;;;;;9.95;3.53;;;;;;;7.79;66.24;99649.78;5056261;28;20417;-87
2021/03/27 07:34:56;;;;;;;12.50;4.03;;;;;;;7.79;65.77;99661.13;5056226;28;20117;-87
2021/03/27 07:37:37;;;;;;;7.68;2.92;;;;;;;7.73;66.18;99673.66;5074164;28;20052;-87
2021/03/27 07:40:25;;;;;;;7.03;3.30;;;;;;;7.69;66.35;99681.66;5056126;28;20048;-87
2021/03/27 07:42:55;;;;;;;5.78;2.70;;;;;;;7.67;65.77;99693.97;5056066;28;20554;-87
2021/03/27 07:45:40;;;;;;;5.03;2.67;;;;;;;7.62;65.60;99682.03;5055743;28;20102;-87
2021/03/27 07:48:10;;;;;;;7.22;2.35;;;;;;;7.58;65.28;99683.91;5073820;28;20062;-86
2021/03/27 07:51:10;;;;;;;12.48;3.25;;;;;;;7.51;65.52;99693.81;5073429;28;20054;-86
2021/03/27 07:54:15;;;;;;;5.65;2.40;;;;;;;7.46;66.02;99693.19;5055980;28;20408;-87
2021/03/27 07:57:17;;;;;;;6.75;2.17;;;;;;;7.43;65.82;99712.50;5056101;28;20059;-87
2021/03/27 08:00:03;;;;;;;10.35;2.75;;;;;;;7.40;66.21;99717.03;5055670;28;20052;-87
2021/03/27 08:02:55;;;;;;;5.88;2.15;;;;;;;7.38;66.05;99726.72;5073537;28;20413;-87
2021/03/27 08:05:27;;;;;;;5.35;2.13;;;;;;;7.38;65.80;99724.97;5046044;28;20146;-86
2021/03/27 08:08:31;;;;;;;8.68;2.20;;;;;;;7.33;65.93;99731.31;5055753;28;20409;-87
2021/03/27 08:11:18;;;;;;;5.28;2.15;;;;;;;7.31;66.09;99744.47;5073307;28;20049;-86
2021/03/27 08:14:12;;;;;;;9.55;2.65;;;;;;;7.29;66.45;99751.56;5073222;28;20056;-87
2021/03/27 08:17:09;;;;;;;9.20;2.60;;;;;;;7.27;66.11;99753.38;5073670;28;20053;-86
2021/03/27 08:19:44;;;;;;;9.63;2.58;;;;;;;7.32;66.28;99755.81;5055789;28;20052;-86
2021/03/27 08:22:50;;;;;;;12.80;2.50;;;;;;;7.26;66.01;99768.22;5073318;28;20394;-86
2021/03/27 08:26:12;;;;;;;17.30;2.97;;;;;;;7.27;66.60;99763.84;5055762;28;20551;-86
2021/03/27 08:28:53;;;;;;;7.75;2.75;;;;;;;7.28;66.00;99760.31;5043849;28;20051;-87
2021/03/27 08:35:56;;;;;;;12.18;3.28;;;;;;;7.29;66.81;99780.38;5010933;28;20434;-87
2021/03/27 08:39:02;;;;;;;13.43;3.33;;;;;;;7.35;66.81;99784.47;5035337;28;20052;-86
2021/03/27 08:41:34;;;;;;;7.25;2.45;;;;;;;7.40;67.05;99799.06;5077408;28;20127;-87
2021/03/27 08:44:11;;;;;;;9.00;3.10;;;;;;;7.46;66.98;99800.56;5059099;28;20053;-87
2021/03/27 08:58:50;;;;;;;10.52;3.20;;;;;;;7.80;66.07;99829.69;4950403;28;20069;-87
2021/03/27 09:01:28;;;;;;;11.02;3.15;;;;;;;7.84;65.56;99839.09;5024637;28;20515;-86
2021/03/27 09:04:16;;;;;;;7.45;3.10;;;;;;;7.87;65.40;99835.50;5076600;28;20044;-87
2021/03/27 09:06:45;;;;;;;9.43;3.25;;;;;;;7.93;66.00;99843.94;5077193;28;20040;-86
2021/03/27 09:09:24;;;;;;;9.70;3.10;;;;;;;7.94;65.72;99856.13;5077245;28;20041;-87
2021/03/27 09:11:50;;;;;;;10.43;2.95;;;;;;;7.98;65.74;99856.84;5058861;28;20059;-87
2021/03/27 09:14:46;;;;;;;10.88;2.55;;;;;;;7.99;65.37;99857.72;5076390;28;20059;-86
2021/03/27 09:17:38;;;;;;;10.00;2.35;;;;;;;8.03;65.08;99881.06;5058642;28;20516;-86
2021/03/27 09:20:21;;;;;;;8.45;2.90;;;;;;;8.08;65.01;99886.13;5049528;28;20052;-86
2021/03/27 09:22:57;;;;;;;9.38;2.50;;;;;;;8.14;65.38;99885.84;5076271;28;20170;-86
2021/03/27 09:25:33;;;;;;;5.65;2.30;;;;;;;8.18;64.93;99887.41;5076496;28;20060;-86
2021/03/27 09:28:23;;;;;;;6.78;1.88;;;;;;;8.24;65.12;99891.53;5058505;28;20512;-86
2021/03/27 09:31:13;;;;;;;10.20;2.80;;;;;;;8.33;66.64;99888.50;5076480;28;20409;-86
2021/03/27 09:34:01;;;;;;;13.57;2.83;;;;;;;8.46;65.81;99878.25;5075992;28;20052;-90
2021/03/27 09:36:58;;;;;;;11.82;2.65;;;;;;;8.60;65.52;99884.69;5058483;28;20060;-86
2021/03/27 09:39:29;;;;;;;11.63;2.72;;;;;;;8.77;65.11;99877.78;5076314;28;20512;-86
2021/03/27 09:42:28;;;;;;;9.20;2.50;;;;;;;8.89;64.51;99873.75;5096638;22;20049;-87
2021/03/27 09:45:12;;;;;;;11.40;2.95;;;;;;;9.07;64.44;99888.59;5034704;28;20111;-88
2021/03/27 09:48:03;;;;;;;11.32;2.67;;;;;;;9.15;61.59;99888.22;5036002;28;20053;-87
2021/03/27 09:50:41;;;;;;;12.93;2.47;;;;;;;9.19;61.74;99881.88;5036328;28;20049;-87
2021/03/27 09:53:31;;;;;;;8.13;2.55;;;;;;;9.24;60.17;99892.19;5035095;28;20053;-88
2021/03/27 09:56:15;;;;;;;6.35;2.30;;;;;;;9.28;60.13;99885.00;5034965;28;20057;-88
2021/03/27 09:59:13;;;;;;;10.13;2.45;;;;;;;9.34;60.62;99901.28;5035072;28;20058;-88
2021/03/27 10:01:47;;;;;;;6.70;2.47;;;;;;;9.42;60.67;99879.88;5036185;28;20053;-88
2021/03/27 10:04:50;;;;;;;8.30;2.50;;;;;;;9.49;61.26;99886.53;5034874;28;20056;-87
2021/03/27 10:07:47;;;;;;;9.02;2.53;;;;;;;9.61;61.36;99892.13;5036061;28;20049;-87
2021/03/27 10:10:19;;;;;;;9.88;2.33;;;;;;;9.76;61.75;99899.19;5034741;28;20057;-87
2021/03/27 10:12:58;;;;;;;7.88;1.98;;;;;;;9.89;59.19;99898.56;5034666;28;20128;-87
2021/03/27 10:15:30;;;;;;;6.57;2.08;;;;;;;10.00;59.90;99901.50;5034312;28;20053;-87
2021/03/27 10:18:28;;;;;;;10.27;2.67;;;;;;;10.04;57.05;99895.16;5034742;28;20072;-87
2021/03/27 10:21:19;;;;;;;11.05;2.22;;;;;;;10.06;54.66;99916.13;5034338;28;20057;-88
2021/03/27 10:23:57;;;;;;;6.93;1.77;;;;;;;10.15;58.96;99914.75;5034441;28;20111;-87
2021/03/27 10:26:35;;;;;;;8.65;2.00;;;;;;;10.15;58.21;99917.41;5034583;28;20049;-87
2021/03/27 10:29:48;;;;;;;10.00;2.30;;;;;;;10.19;57.14;99920.69;5034679;28;20049;-87
2021/03/27 10:32:53;;;;;;;10.40;2.60;;;;;;;10.24;55.84;99940.59;5034435;28;20057;-87
2021/03/27 10:36:44;;;;;;;14.00;1.98;;;;;;;10.24;53.12;99937.13;5034473;28;20099;-87
2021/03/27 10:40:27;;;;;;;6.60;1.85;;;;;;;10.21;51.50;99953.88;4992940;28;20434;-88
2021/03/27 10:43:52;;;;;;;9.32;2.30;;;;;;;10.21;52.08;99966.22;4919818;28;20059;-87
2021/03/27 10:47:09;;;;;;;7.45;1.95;;;;;;;10.14;52.94;100020.91;4993407;28;20057;-87
2021/03/27 10:49:39;;;;;;;2.75;0.70;;;;;;;10.02;54.95;100067.94;5000637;28;20053;-87
2021/03/27 10:52:11;;;;;;;3.65;0.60;;;;;;;9.78;54.55;100102.41;5033883;28;20139;-87
2021/03/27 10:54:56;;;;;;;1.33;0.40;;;;;;;9.45;54.64;100094.34;5034073;28;20490;-86
2021/03/27 10:57:45;;;;;;;0.45;0.38;;;;;;;8.83;54.63;100116.38;5033976;28;20053;-85
2021/03/27 11:00:39;;;;;;;2.67;0.50;;;;;;;8.32;55.36;100117.59;5032769;28;20056;-86
2021/03/27 11:03:31;;;;;;;0.85;0.40;;;;;;;7.76;56.45;100117.22;5033891;28;20076;-85
2021/03/27 11:06:18;;;;;;;0.82;0.50;;;;;;;7.34;57.38;100103.09;5033541;28;20055;-87
2021/03/27 11:09:31;;;;;;;1.15;0.40;;;;;;;6.98;58.10;100091.34;5033615;28;20513;-87
2021/03/27 11:12:23;;;;;;;1.17;0.40;;;;;;;6.68;59.15;100083.69;5038481;28;20064;-85
2021/03/27 11:15:04;;;;;;;1.63;0.52;;;;;;;6.49;60.66;100086.94;5036733;28;20046;-87
2021/03/27 11:18:08;;;;;;;0.70;0.38;;;;;;;6.39;61.64;100086.41;5035911;28;20050;-87
2021/03/27 11:20:43;;;;;;;3.75;0.50;;;;;;;6.41;63.24;100103.78;5036051;28;20505;-87
2021/03/27 11:23:39;;;;;;;1.23;0.75;;;;;;;6.50;64.88;100104.34;5039842;28;20049;-88
2021/03/27 11:26:11;;;;;;;1.48;0.40;;;;;;;6.81;67.78;100101.56;5035572;28;20075;-87
2021/03/27 11:28:38;;;;;;;0.60;0.50;;;;;;;7.19;68.95;100108.91;5034835;28;20045;-87
2021/03/27 11:31:11;;;;;;;1.88;0.60;;;;;;;7.63;68.44;100105.53;5036105;28;20060;-87
2021/03/27 11:33:40;;;;;;;2.83;1.08;;;;;;;8.16;69.03;100106.03;5035096;28;20053;-87
2021/03/27 11:36:22;;;;;;;1.45;0.60;;;;;;;8.78;65.99;100105.22;5034088;28;20050;-87
2021/03/27 11:38:55;;;;;;;4.07;0.65;;;;;;;9.39;64.11;100103.38;5034428;28;20045;-88
2021/03/27 11:41:38;;;;;;;3.37;0.83;;;;;;;10.03;64.68;100100.38;5035755;28;20056;-88
2021/03/27 11:44:29;;;;;;;3.08;0.90;;;;;;;10.68;63.42;100106.81;5049619;28;20049;-90
2021/03/27 11:47:01;;;;;;;3.35;1.10;;;;;;;11.29;64.79;100107.09;5032889;28;20057;-90
2021/03/27 11:49:50;;;;;;;2.85;0.82;;;;;;;11.92;60.37;100111.63;5033294;28;20508;-90
2021/03/27 11:52:24;;;;;;;3.65;1.38;;;;;;;12.46;62.23;100118.22;5038741;28;20111;-88
2021/03/27 11:55:18;;;;;;;4.63;1.25;;;;;;;12.85;58.14;100119.41;5033749;28;20173;-92
2021/03/27 11:57:44;;;;;;;;;;;;;;;13.14;53.54;100118.56;5033607;28;20054;-89
2021/03/27 12:01:04;;;;;;;3.13;1.02;;;;;;;13.41;55.57;100120.41;5032854;28;19932;-90
2021/03/27 12:03:38;;;;;;;2.05;1.05;;;;;;;13.67;53.26;100129.38;5030591;28;20055;-87
2021/03/27 12:06:18;;;;;;;2.70;1.13;;;;;;;13.91;52.33;100122.59;5033099;28;20069;-91
2021/03/27 12:09:06;;;;;;;5.05;1.08;;;;;;;14.17;52.85;100123.53;5033950;28;20049;-91
2021/03/27 12:11:51;;;;;;;6.05;1.35;;;;;;;14.40;49.16;100125.59;5048898;28;20053;-91
2021/03/27 12:14:30;;;;;;;2.72;1.05;;;;;;;14.63;54.15;100123.19;5032832;28;20045;-91
2021/03/27 12:17:13;;;;;;;5.20;1.48;;;;;;;14.78;51.62;100116.00;5049321;28;20053;-91
2021/03/27 12:19:58;;;;;;;8.17;1.50;;;;;;;14.85;50.29;100112.81;5032950;28;20414;-91
2021/03/27 12:22:40;;;;;;;6.35;1.70;;;;;;;14.70;46.87;100117.34;5032461;28;20056;-91
2021/03/27 12:25:40;;;;;;;7.97;1.83;;;;;;;14.31;47.24;100119.97;5033968;28;20379;-91
2021/03/27 12:28:30;;;;;;;6.80;1.98;;;;;;;13.81;46.65;100127.63;5032860;28;20060;-91
2021/03/27 12:31:09;;;;;;;7.13;1.80;;;;;;;13.35;49.50;100132.22;5034036;28;20057;-91
2021/03/27 12:33:59;;;;;;;5.00;1.80;;;;;;;12.87;50.35;100137.81;5032584;28;20049;-90
2021/03/27 12:36:48;;;;;;;9.80;2.05;;;;;;;12.42;50.63;100122.84;5048715;28;20525;-89
2021/03/27 12:39:23;;;;;;;8.77;2.30;;;;;;;12.04;50.58;100132.00;5034089;28;20049;-89
2021/03/27 12:42:03;;;;;;;6.82;2.10;;;;;;;11.71;51.51;100133.81;5032157;28;20049;-89
2021/03/27 12:44:38;;;;;;;7.30;1.77;;;;;;;11.41;51.28;100141.66;5033188;28;20053;-90
2021/03/27 12:47:19;;;;;;;8.82;2.00;;;;;;;11.17;51.75;100136.75;5033258;28;20521;-90
2021/03/27 12:50:04;;;;;;;10.95;2.22;;;;;;;10.92;52.43;100146.81;5033460;28;20042;-89
2021/03/27 12:52:39;;;;;;;8.80;2.30;;;;;;;10.76;52.70;100144.13;5032444;28;20052;-89
2021/03/27 12:55:05;;;;;;;10.90;2.65;;;;;;;10.73;54.84;100143.44;5031958;28;20053;-89
2021/03/27 12:57:41;;;;;;;9.00;2.30;;;;;;;10.76;55.40;100145.94;5031981;28;20080;-89
2021/03/27 13:00:32;;;;;;;7.18;1.90;;;;;;;10.81;54.87;100146.53;5048562;28;20121;-89
2021/03/27 13:03:14;;;;;;;5.20;1.60;;;;;;;10.86;54.53;100162.94;5032191;28;20046;-89
2021/03/27 13:06:06;;;;;;;8.85;1.92;;;;;;;10.90;54.65;100169.75;5032202;28;20430;-89
2021/03/27 13:08:41;;;;;;;11.48;2.60;;;;;;;10.95;52.33;100175.63;5032977;28;20064;-89
2021/03/27 13:11:20;;;;;;;5.07;2.00;;;;;;;11.04;53.89;100166.41;5048604;28;20049;-89
2021/03/27 13:13:49;;;;;;;5.47;1.63;;;;;;;11.22;54.88;100192.72;5032156;28;20055;-90